»·PEaware :: N335AK KSAC-KPSC

N335AK :: KSAC-KPSC

FLIGHT INFORMATION

Flight Status: Arrived
Operator: Privately registered:
United States
More flights under this callsign
Pilot: Gabor H. (24209)
Aircraft: Unknown
(EPIC)
More flights by this aircraft type
Origin: KSAC Sacramento Executive
United States
Destination: KPSC Tri-Cities
United States
More flights between these airports :: More routes between these airports
Route: SAC V392 SIGNA LKV J3 IMB
File this flight plan on PilotEdge
Remarks:
Altitude:
(Current/Filed)
34,000ft
Speed:
(Current/Filed)
325kts
Departed: 30-Oct-20 07:50 AM
Arrived: 30-Oct-20 09:43 AM
Distance/Time
Traveled:
477nm/1:53
Distance/Time
To Go:
Arrived

Flight Plot

Page will automatically refresh every two minutes.

Flight plan parsing failed; only flown route is shown


Map Options




Map Legend


Flown Route
Filed Route
Departure Airport
Arrival Airport
Navaid (VOR, NDB)
Fix

Horizontal Profiles

Position Reports

Time Latitude Longitude Heading Altitude Ground
Speed
30-Oct-20 07:35 38.514770 -121.498394 226 23ft 0kts
30-Oct-20 07:36 38.514770 -121.498394 226 23ft 0kts
30-Oct-20 07:37 38.514770 -121.498394 226 23ft 0kts
30-Oct-20 07:38 38.514770 -121.498394 226 23ft 0kts
30-Oct-20 07:39 38.514770 -121.498394 226 23ft 0kts
30-Oct-20 07:40 38.514770 -121.498394 226 23ft 0kts
30-Oct-20 07:41 38.514770 -121.498394 226 23ft 0kts
30-Oct-20 07:42 38.514770 -121.498394 226 23ft 0kts
30-Oct-20 07:43 38.514770 -121.498394 226 23ft 0kts
30-Oct-20 07:44 38.514770 -121.498394 226 23ft 0kts
30-Oct-20 07:45 38.514005 -121.497027 121 23ft 16kts
30-Oct-20 07:46 38.516467 -121.493089 32 25ft 16kts
30-Oct-20 07:47 38.519189 -121.490427 95 25ft 0kts
30-Oct-20 07:48 38.519189 -121.490427 95 25ft 0kts
30-Oct-20 07:49 38.514494 -121.493043 213 42ft 108kts
30-Oct-20 07:50 38.486914 -121.464110 103 1991ft 223kts
30-Oct-20 07:51 38.472045 -121.387107 103 2319ft 208kts
30-Oct-20 07:52 38.457815 -121.315645 103 5099ft 212kts
30-Oct-20 07:53 38.442541 -121.241526 103 8205ft 223kts
30-Oct-20 07:54 38.450877 -121.173121 14 11080ft 225kts
30-Oct-20 07:55 38.512117 -121.152283 13 13852ft 234kts
30-Oct-20 07:56 38.575955 -121.129947 13 16426ft 243kts
30-Oct-20 07:57 38.641838 -121.106237 13 18795ft 252kts
30-Oct-20 07:58 38.714453 -121.080003 13 19294ft 287kts
30-Oct-20 07:59 38.786048 -121.053732 13 21454ft 255kts
30-Oct-20 08:01 38.854743 -121.027845 13 22676ft 264kts
30-Oct-20 08:02 38.925867 -121.000744 13 23665ft 270kts
30-Oct-20 08:03 38.997401 -120.971230 25 24630ft 276kts
30-Oct-20 08:04 39.060526 -120.913560 31 25628ft 279kts
30-Oct-20 08:05 39.122852 -120.854154 31 26621ft 278kts
30-Oct-20 08:06 39.184390 -120.795338 31 27625ft 275kts
30-Oct-20 08:07 39.245215 -120.737078 30 28628ft 270kts
30-Oct-20 08:08 39.305068 -120.679608 30 29632ft 266kts
30-Oct-20 08:09 39.367431 -120.639897 359 30668ft 244kts
30-Oct-20 08:10 39.435075 -120.635710 356 31506ft 245kts
30-Oct-20 08:11 39.503244 -120.632928 356 32261ft 248kts
30-Oct-20 08:12 39.572324 -120.630143 356 32941ft 250kts
30-Oct-20 08:13 39.642142 -120.627326 356 33539ft 252kts
30-Oct-20 08:14 39.712319 -120.624484 356 34066ft 254kts
30-Oct-20 08:15 39.783787 -120.621590 356 34281ft 263kts
30-Oct-20 08:16 39.858537 -120.618543 356 34276ft 275kts
30-Oct-20 08:16 39.922814 -120.615921 356 34275ft 280kts
30-Oct-20 08:18 40.014198 -120.612197 356 34273ft 284kts
30-Oct-20 08:18 40.079898 -120.609507 356 34273ft 285kts
30-Oct-20 08:20 40.171388 -120.605758 356 34277ft 281kts
30-Oct-20 08:21 40.249072 -120.602573 356 34277ft 279kts
30-Oct-20 08:21 40.313637 -120.599918 356 34277ft 280kts
30-Oct-20 08:23 40.404363 -120.596174 356 34276ft 280kts
30-Oct-20 08:23 40.468914 -120.593505 356 34276ft 280kts
30-Oct-20 08:25 40.559709 -120.589748 356 34275ft 280kts
30-Oct-20 08:25 40.624435 -120.587059 356 34275ft 280kts
30-Oct-20 08:26 40.702185 -120.583825 356 34275ft 280kts
30-Oct-20 08:27 40.779892 -120.580581 356 34275ft 280kts
30-Oct-20 08:28 40.857598 -120.577333 356 34263ft 280kts
30-Oct-20 08:29 40.935174 -120.574082 356 34245ft 280kts
30-Oct-20 08:30 41.013063 -120.570789 355 34237ft 280kts
30-Oct-20 08:31 41.090902 -120.567515 354 34237ft 282kts
30-Oct-20 08:32 41.169966 -120.564203 354 34242ft 285kts
30-Oct-20 08:33 41.249526 -120.560836 354 34242ft 288kts
30-Oct-20 08:34 41.329423 -120.557446 354 34241ft 289kts
30-Oct-20 08:35 41.409606 -120.554037 354 34241ft 289kts
30-Oct-20 08:36 41.489881 -120.550616 354 34241ft 289kts
30-Oct-20 08:37 41.570414 -120.547175 354 34241ft 290kts
30-Oct-20 08:38 41.650772 -120.543731 354 34241ft 290kts
30-Oct-20 08:39 41.731196 -120.540279 354 34240ft 290kts
30-Oct-20 08:40 41.811579 -120.536817 354 34240ft 290kts
30-Oct-20 08:41 41.892013 -120.533347 354 34240ft 290kts
30-Oct-20 08:42 41.972257 -120.529876 354 34239ft 290kts
30-Oct-20 08:43 42.052873 -120.526380 354 34239ft 289kts
30-Oct-20 08:44 42.133236 -120.522890 354 34242ft 290kts
30-Oct-20 08:45 42.213570 -120.519389 354 34242ft 290kts
30-Oct-20 08:46 42.295384 -120.515827 354 34244ft 300kts
30-Oct-20 08:47 42.379661 -120.512128 354 34243ft 308kts
30-Oct-20 08:48 42.466117 -120.508323 354 34242ft 314kts
30-Oct-20 08:49 42.553297 -120.485584 7 34241ft 325kts
30-Oct-20 08:50 42.640647 -120.454444 7 34241ft 326kts
30-Oct-20 08:51 42.728490 -120.422996 7 34241ft 327kts
30-Oct-20 08:52 42.816144 -120.391525 7 34241ft 327kts
30-Oct-20 08:53 42.903541 -120.360025 6 34238ft 323kts
30-Oct-20 08:54 42.989273 -120.329066 6 34232ft 316kts
30-Oct-20 08:55 43.074022 -120.298397 5 34233ft 315kts
30-Oct-20 08:56 43.158120 -120.267855 5 34234ft 312kts
30-Oct-20 08:57 43.241628 -120.237449 5 34210ft 311kts
30-Oct-20 08:58 43.325297 -120.206886 5 34150ft 311kts
30-Oct-20 08:59 43.408939 -120.176249 5 34120ft 311kts
30-Oct-20 09:00 43.492607 -120.145521 5 34130ft 315kts
30-Oct-20 09:01 43.577610 -120.114202 5 34137ft 319kts
30-Oct-20 09:02 43.663614 -120.082429 5 34144ft 323kts
30-Oct-20 09:03 43.750708 -120.050147 5 34152ft 326kts
30-Oct-20 09:04 43.838516 -120.017504 5 34159ft 328kts
30-Oct-20 09:05 43.926666 -119.984633 5 34130ft 329kts
30-Oct-20 09:06 44.015294 -119.951484 5 34092ft 330kts
30-Oct-20 09:07 44.103788 -119.918280 5 34092ft 330kts
30-Oct-20 09:08 44.192258 -119.884988 5 34092ft 330kts
30-Oct-20 09:09 44.280820 -119.851555 5 34092ft 330kts
30-Oct-20 09:10 44.369215 -119.818078 5 34093ft 330kts
30-Oct-20 09:11 44.457421 -119.784563 5 34092ft 327kts
30-Oct-20 09:12 44.544267 -119.751474 5 34093ft 323kts
30-Oct-20 09:13 44.634745 -119.716914 6 32695ft 355kts
30-Oct-20 09:14 44.732055 -119.681839 6 30778ft 371kts
30-Oct-20 09:15 44.834169 -119.645299 6 28766ft 385kts
30-Oct-20 09:16 44.938317 -119.607901 6 26711ft 389kts
30-Oct-20 09:17 45.043096 -119.570109 6 24651ft 392kts
30-Oct-20 09:18 45.149211 -119.531743 5 22578ft 397kts
30-Oct-20 09:19 45.253008 -119.494017 5 20530ft 375kts
30-Oct-20 09:20 45.352268 -119.457856 4 18578ft 367kts
30-Oct-20 09:21 45.450753 -119.421833 5 16640ft 365kts
30-Oct-20 09:22 45.547351 -119.386348 4 14735ft 352kts
30-Oct-20 09:23 45.640942 -119.351884 4 12893ft 345kts
30-Oct-20 09:24 45.733101 -119.317837 6 11054ft 341kts
30-Oct-20 09:25 45.822130 -119.284774 6 10003ft 307kts
30-Oct-20 09:26 45.895288 -119.225540 44 9499ft 318kts
30-Oct-20 09:27 45.952367 -119.132539 44 8453ft 307kts
30-Oct-20 09:28 46.009138 -119.042111 44 7574ft 301kts
30-Oct-20 09:29 46.066084 -118.953592 44 6797ft 303kts
30-Oct-20 09:30 46.124744 -118.865666 44 5999ft 304kts
30-Oct-20 09:31 46.183234 -118.779116 43 5181ft 292kts
30-Oct-20 09:32 46.237237 -118.700744 44 4974ft 260kts
30-Oct-20 09:33 46.290749 -118.638652 356 4877ft 243kts
30-Oct-20 09:34 46.344924 -118.690289 314 3615ft 245kts
30-Oct-20 09:35 46.398610 -118.754875 314 2775ft 250kts
30-Oct-20 09:36 46.438104 -118.824509 252 2621ft 205kts
30-Oct-20 09:37 46.399462 -118.868661 252 2471ft 186kts
30-Oct-20 09:38 46.382048 -118.944642 229 2468ft 214kts
30-Oct-20 09:39 46.341913 -119.006075 225 2413ft 195kts
30-Oct-20 09:40 46.305840 -119.059525 223 1406ft 180kts
30-Oct-20 09:41 46.277919 -119.096531 226 799ft 97kts
30-Oct-20 09:42 46.264504 -119.116210 221 406ft 25kts
30-Oct-20 09:43 46.263535 -119.116145 134 406ft 0kts
30-Oct-20 09:44 46.258089 -119.108490 125 405ft 19kts
30-Oct-20 09:45 46.262701 -119.106527 338 408ft 20kts

Navigation Log

Ident Type
Flight plan parsing failed, navigation log unavailable